Flight Track Log - Related Links

Times and Time Zones

All times are in EDT time to prevent confusion due to time zone crossing. See the SWA591 flight status page for this flight to view local times or setup timezone preferences in your user account.

Time Position Orientation Groundspeed Altitude Reporting Facility
EDT Latitude Longitude Course Direction KTS MPH feet Rate Location/Type
Mon 08:18:31 PM 39.1319 -76.6297 133° Southeast 183 211 7,100  Level Washington Center
Mon 08:19:31 PM 39.1392 -76.5203 85° East 234 269 10,400 2,949 Climbing Washington Center
Mon 08:20:29 PM 39.1442 -76.3997 87° East 283 326 12,900 2,874 Climbing Washington Center
Mon 08:21:30 PM 39.1492 -76.2633 87° East 336 387 16,100 2,777 Climbing Washington Center
Mon 08:22:30 PM 39.1622 -76.1378 82° East 382 440 18,500 2,500 Climbing Washington Center
Mon 08:23:30 PM 39.1772 -75.9958 82° East 395 455 21,100 2,281 Climbing Washington Center
Mon 08:24:31 PM 39.2111 -75.8542 73° East 401 461 23,100 2,168 Climbing Washington Center
Mon 08:25:29 PM 39.2947 -75.7497 44° Northeast 396 456 25,400 2,255 Climbing Washington Center
Mon 08:27:08 PM 39.4408 -75.5614 45° Northeast 428 493 29,000 1,358 Climbing New York Center
Mon 08:28:08 PM 39.5222 -75.4539 46° Northeast 423 487 29,000  Level New York Center
Mon 08:29:08 PM 39.6100 -75.3464 43° Northeast 423 487 29,000  Level New York Center
Mon 08:30:08 PM 39.6994 -75.2389 43° Northeast 423 487 29,000  Level New York Center
Mon 08:31:08 PM 39.7850 -75.1256 45° Northeast 428 493 29,000  Level New York Center
Mon 08:32:08 PM 39.8744 -75.0175 43° Northeast 428 493 29,000  Level New York Center
Mon 08:33:08 PM 39.9444 -74.9297 44° Northeast 428 493 29,000  Level New York Center
Mon 08:34:08 PM 40.0400 -74.8161 42° Northeast 428 493 29,000  Level New York Center
Mon 08:35:08 PM 40.1272 -74.7072 44° Northeast 423 487 29,000  Level New York Center
Mon 08:36:08 PM 40.2139 -74.6006 43° Northeast 423 487 29,000  Level New York Center
Mon 08:37:08 PM 40.2989 -74.4883 45° Northeast 428 493 29,000  Level New York Center
Mon 08:38:08 PM 40.3833 -74.3811 44° Northeast 423 487 29,000  Level New York Center
Mon 08:40:27 PM 40.5872 -74.1208 44° Northeast 425 489 29,000 -627 Level Boston Center
Mon 08:41:29 PM 40.6742 -74.0136 43° Northeast 425 489 26,900 -2,218 Descending Boston Center
Mon 08:42:26 PM 40.7569 -73.9086 44° Northeast 420 483 24,600 -1,462 Descending Boston Center
Mon 08:43:28 PM 40.8417 -73.8036 43° Northeast 409 471 24,000 -500 Descending Boston Center
Mon 08:44:26 PM 40.9344 -73.7011 40° Northeast 409 471 23,600 -508 Descending Boston Center
Mon 08:45:26 PM 41.0475 -73.6511 18° North 422 486 23,000 -850 Descending Boston Center
Mon 08:46:26 PM 41.1664 -73.6394 North 414 476 21,900 -1,550 Descending Boston Center
Mon 08:47:26 PM 41.2875 -73.6225 North 419 482 19,900 -1,934 Descending Boston Center
Mon 08:48:27 PM 41.4044 -73.6108 North 425 489 18,000 -1,300 Descending Boston Center
Mon 08:49:26 PM 41.5067 -73.6044 North 420 483 17,300 -1,650 Descending Boston Center
Mon 08:50:27 PM 41.6253 -73.6203 354° North 394 453 14,700 -2,780 Descending Boston Center
Mon 08:51:29 PM 41.7292 -73.6333 355° North 380 437 11,600 -1,866 Descending Boston Center
Mon 08:52:26 PM 41.8233 -73.6075 12° North 358 412 11,000 -375 Descending Boston Center
Mon 08:53:05 PM 41.8753 -73.6111 357° North 319 367 11,000  Level Boston Center
Mon 08:54:04 PM 41.9667 -73.6408 346° North 310 357 11,000  Level Boston Center
Mon 08:55:07 PM 42.0603 -73.6619 350° North 324 373 11,000  Level Boston Center
Mon 08:56:08 PM 42.1436 -73.6833 349° North 314 361 11,000 -500 Level Boston Center
Mon 08:57:07 PM 42.2225 -73.7100 346° North 291 335 10,000 -1,511 Descending Boston Center
Mon 08:58:27 PM 42.3306 -73.7375 349° North 292 336 7,500 -1,875 Descending Boston Center
Mon 08:59:15 PM 42.3928 -73.7558 348° North 288 331 6,000 -1,636 Descending Boston Center
Mon 09:00:17 PM 42.4656 -73.7797 346° North 271 312 4,500 -1,475 Descending Boston Center
Mon 09:01:17 PM 42.5361 -73.7981 349° North 251 289 3,000 -807 Descending Boston Center
Mon 09:02:16 PM 42.5944 -73.7994 359° North 205 236 2,900 -403 Descending Boston Center
Mon 09:03:16 PM 42.6381 -73.8003 359° North 143 165 2,200 -744 Descending Boston Center
Mon 09:04:17 PM 42.6756 -73.8042 356° North 131 151 1,400 -793 Descending Boston Center
Mon 09:05:17 PM 42.7214 -73.8078 357° North 143 165 600 9,969 Descending Boston Center
Mon 09:06:27 PM 42.8253 -73.8328 350° North 202 232 23,000 19,200 Climbing Boston Center
Mon 09:08:00 PM 42.7491 -73.8020 163° South  Level Estimated
Mon 09:15:00 PM 42.7491 -73.8020 304° West  Level Estimated

Login

Don't have an account? Register now (free) for customized features, flight alerts, and more!